sensor_id;sensor_type;location;lat;lon;timestamp;P1;durP1;ratioP1;P2;durP2;ratioP2
32321;SDS011;61553;48.994;8.940;2023-04-25T00:00:44;7.50;;;5.20;;
32321;SDS011;61553;48.994;8.940;2023-04-25T00:03:10;9.73;;;5.55;;
32321;SDS011;61553;48.994;8.940;2023-04-25T00:05:35;9.23;;;5.25;;
32321;SDS011;61553;48.994;8.940;2023-04-25T00:08:02;10.23;;;5.50;;
32321;SDS011;61553;48.994;8.940;2023-04-25T00:10:28;8.27;;;5.15;;
32321;SDS011;61553;48.994;8.940;2023-04-25T00:12:54;8.00;;;5.35;;
32321;SDS011;61553;48.994;8.940;2023-04-25T00:15:19;9.25;;;5.43;;
32321;SDS011;61553;48.994;8.940;2023-04-25T00:17:45;9.43;;;5.50;;
32321;SDS011;61553;48.994;8.940;2023-04-25T00:20:12;8.10;;;4.82;;
32321;SDS011;61553;48.994;8.940;2023-04-25T00:22:38;10.60;;;5.00;;
32321;SDS011;61553;48.994;8.940;2023-04-25T00:25:04;6.47;;;4.35;;
32321;SDS011;61553;48.994;8.940;2023-04-25T00:27:31;9.18;;;5.85;;
32321;SDS011;61553;48.994;8.940;2023-04-25T00:29:56;6.97;;;4.30;;
32321;SDS011;61553;48.994;8.940;2023-04-25T00:32:22;7.00;;;4.55;;
32321;SDS011;61553;48.994;8.940;2023-04-25T00:34:48;8.02;;;5.03;;
32321;SDS011;61553;48.994;8.940;2023-04-25T00:37:14;11.80;;;6.20;;
32321;SDS011;61553;48.994;8.940;2023-04-25T00:39:39;8.40;;;5.72;;
32321;SDS011;61553;48.994;8.940;2023-04-25T00:42:05;15.70;;;5.63;;
32321;SDS011;61553;48.994;8.940;2023-04-25T00:44:31;7.68;;;4.90;;
32321;SDS011;61553;48.994;8.940;2023-04-25T00:46:57;9.00;;;5.20;;
32321;SDS011;61553;48.994;8.940;2023-04-25T00:49:23;8.15;;;5.00;;
32321;SDS011;61553;48.994;8.940;2023-04-25T00:51:49;8.07;;;5.03;;
32321;SDS011;61553;48.994;8.940;2023-04-25T00:54:14;8.15;;;5.53;;
32321;SDS011;61553;48.994;8.940;2023-04-25T00:56:41;9.05;;;5.07;;
32321;SDS011;61553;48.994;8.940;2023-04-25T00:59:07;7.38;;;5.30;;
32321;SDS011;61553;48.994;8.940;2023-04-25T01:01:34;9.63;;;5.63;;
32321;SDS011;61553;48.994;8.940;2023-04-25T01:04:00;9.50;;;5.20;;
32321;SDS011;61553;48.994;8.940;2023-04-25T01:06:26;10.25;;;5.57;;
32321;SDS011;61553;48.994;8.940;2023-04-25T01:08:53;8.52;;;5.13;;
32321;SDS011;61553;48.994;8.940;2023-04-25T01:11:19;7.18;;;4.68;;
32321;SDS011;61553;48.994;8.940;2023-04-25T01:13:45;10.32;;;5.68;;
32321;SDS011;61553;48.994;8.940;2023-04-25T01:16:10;8.40;;;4.97;;
32321;SDS011;61553;48.994;8.940;2023-04-25T01:18:37;8.20;;;5.05;;
32321;SDS011;61553;48.994;8.940;2023-04-25T01:21:08;7.32;;;4.68;;
32321;SDS011;61553;48.994;8.940;2023-04-25T01:23:35;6.90;;;4.57;;
32321;SDS011;61553;48.994;8.940;2023-04-25T01:26:03;6.43;;;4.45;;
32321;SDS011;61553;48.994;8.940;2023-04-25T01:28:29;6.43;;;4.45;;
32321;SDS011;61553;48.994;8.940;2023-04-25T01:30:55;8.88;;;4.47;;
32321;SDS011;61553;48.994;8.940;2023-04-25T01:33:21;6.70;;;4.07;;
32321;SDS011;61553;48.994;8.940;2023-04-25T01:35:47;10.52;;;4.45;;
32321;SDS011;61553;48.994;8.940;2023-04-25T01:38:13;9.98;;;5.07;;
32321;SDS011;61553;48.994;8.940;2023-04-25T01:40:40;6.05;;;4.13;;
32321;SDS011;61553;48.994;8.940;2023-04-25T01:43:06;8.65;;;5.00;;
32321;SDS011;61553;48.994;8.940;2023-04-25T01:45:35;6.65;;;3.95;;
32321;SDS011;61553;48.994;8.940;2023-04-25T01:48:04;7.57;;;4.43;;
32321;SDS011;61553;48.994;8.940;2023-04-25T01:50:30;7.75;;;4.10;;
32321;SDS011;61553;48.994;8.940;2023-04-25T01:52:56;9.07;;;3.90;;
32321;SDS011;61553;48.994;8.940;2023-04-25T01:55:21;6.85;;;3.75;;
32321;SDS011;61553;48.994;8.940;2023-04-25T01:57:47;6.82;;;3.83;;
32321;SDS011;61553;48.994;8.940;2023-04-25T02:00:13;6.85;;;3.97;;
32321;SDS011;61553;48.994;8.940;2023-04-25T02:02:39;9.13;;;4.38;;
32321;SDS011;61553;48.994;8.940;2023-04-25T02:05:04;6.47;;;4.28;;
32321;SDS011;61553;48.994;8.940;2023-04-25T02:07:31;9.90;;;4.43;;
32321;SDS011;61553;48.994;8.940;2023-04-25T02:09:57;5.38;;;3.47;;
32321;SDS011;61553;48.994;8.940;2023-04-25T02:12:22;10.88;;;4.60;;
32321;SDS011;61553;48.994;8.940;2023-04-25T02:14:48;8.85;;;4.47;;
32321;SDS011;61553;48.994;8.940;2023-04-25T02:17:14;8.00;;;4.07;;
32321;SDS011;61553;48.994;8.940;2023-04-25T02:19:40;6.05;;;3.88;;
32321;SDS011;61553;48.994;8.940;2023-04-25T02:22:06;7.25;;;4.97;;
32321;SDS011;61553;48.994;8.940;2023-04-25T02:24:32;6.63;;;3.83;;
32321;SDS011;61553;48.994;8.940;2023-04-25T02:26:58;8.57;;;4.25;;
32321;SDS011;61553;48.994;8.940;2023-04-25T02:29:24;7.82;;;4.03;;
32321;SDS011;61553;48.994;8.940;2023-04-25T02:31:50;10.88;;;4.38;;
32321;SDS011;61553;48.994;8.940;2023-04-25T02:34:15;6.85;;;4.22;;
32321;SDS011;61553;48.994;8.940;2023-04-25T02:36:41;5.22;;;3.75;;
32321;SDS011;61553;48.994;8.940;2023-04-25T02:39:06;6.13;;;3.63;;
32321;SDS011;61553;48.994;8.940;2023-04-25T02:41:32;8.60;;;3.85;;
32321;SDS011;61553;48.994;8.940;2023-04-25T02:43:58;6.70;;;4.07;;
32321;SDS011;61553;48.994;8.940;2023-04-25T02:46:23;7.00;;;3.53;;
32321;SDS011;61553;48.994;8.940;2023-04-25T02:48:49;6.82;;;3.90;;
32321;SDS011;61553;48.994;8.940;2023-04-25T02:51:14;10.63;;;4.25;;
32321;SDS011;61553;48.994;8.940;2023-04-25T02:53:41;6.00;;;3.53;;
32321;SDS011;61553;48.994;8.940;2023-04-25T02:56:07;8.00;;;4.00;;
32321;SDS011;61553;48.994;8.940;2023-04-25T02:58:32;6.57;;;3.72;;
32321;SDS011;61553;48.994;8.940;2023-04-25T03:00:58;8.75;;;3.92;;
32321;SDS011;61553;48.994;8.940;2023-04-25T03:03:24;7.60;;;4.40;;
32321;SDS011;61553;48.994;8.940;2023-04-25T03:05:50;7.35;;;3.70;;
32321;SDS011;61553;48.994;8.940;2023-04-25T03:08:16;6.78;;;3.78;;
32321;SDS011;61553;48.994;8.940;2023-04-25T03:10:42;7.40;;;4.03;;
32321;SDS011;61553;48.994;8.940;2023-04-25T03:13:08;8.57;;;4.20;;
32321;SDS011;61553;48.994;8.940;2023-04-25T03:15:34;5.15;;;3.45;;
32321;SDS011;61553;48.994;8.940;2023-04-25T03:18:01;6.85;;;4.28;;
32321;SDS011;61553;48.994;8.940;2023-04-25T03:20:26;6.03;;;3.88;;
32321;SDS011;61553;48.994;8.940;2023-04-25T03:22:52;7.57;;;4.05;;
32321;SDS011;61553;48.994;8.940;2023-04-25T03:25:18;8.00;;;3.58;;
32321;SDS011;61553;48.994;8.940;2023-04-25T03:27:44;5.95;;;3.75;;
32321;SDS011;61553;48.994;8.940;2023-04-25T03:30:09;6.47;;;4.25;;
32321;SDS011;61553;48.994;8.940;2023-04-25T03:32:36;9.05;;;4.25;;
32321;SDS011;61553;48.994;8.940;2023-04-25T03:35:01;11.52;;;4.13;;
32321;SDS011;61553;48.994;8.940;2023-04-25T03:37:27;7.57;;;3.88;;
32321;SDS011;61553;48.994;8.940;2023-04-25T03:39:53;6.80;;;4.47;;
32321;SDS011;61553;48.994;8.940;2023-04-25T03:42:18;8.38;;;4.18;;
32321;SDS011;61553;48.994;8.940;2023-04-25T03:44:44;6.47;;;4.13;;
32321;SDS011;61553;48.994;8.940;2023-04-25T03:47:10;8.48;;;4.57;;
32321;SDS011;61553;48.994;8.940;2023-04-25T03:49:35;7.75;;;4.53;;
32321;SDS011;61553;48.994;8.940;2023-04-25T03:52:02;6.55;;;4.35;;
32321;SDS011;61553;48.994;8.940;2023-04-25T03:54:28;5.55;;;3.80;;
32321;SDS011;61553;48.994;8.940;2023-04-25T03:56:53;6.78;;;3.88;;
32321;SDS011;61553;48.994;8.940;2023-04-25T03:59:19;8.02;;;3.83;;
32321;SDS011;61553;48.994;8.940;2023-04-25T04:01:44;6.50;;;3.75;;
32321;SDS011;61553;48.994;8.940;2023-04-25T04:04:10;6.95;;;4.25;;
32321;SDS011;61553;48.994;8.940;2023-04-25T04:06:36;6.13;;;4.10;;
32321;SDS011;61553;48.994;8.940;2023-04-25T04:09:02;6.57;;;4.07;;
32321;SDS011;61553;48.994;8.940;2023-04-25T04:11:28;6.43;;;4.20;;
32321;SDS011;61553;48.994;8.940;2023-04-25T04:13:53;8.57;;;4.32;;
32321;SDS011;61553;48.994;8.940;2023-04-25T04:16:19;7.10;;;4.10;;
32321;SDS011;61553;48.994;8.940;2023-04-25T04:18:45;8.45;;;4.60;;
32321;SDS011;61553;48.994;8.940;2023-04-25T04:21:11;9.30;;;4.57;;
32321;SDS011;61553;48.994;8.940;2023-04-25T04:23:37;8.02;;;4.40;;
32321;SDS011;61553;48.994;8.940;2023-04-25T04:26:02;6.47;;;4.05;;
32321;SDS011;61553;48.994;8.940;2023-04-25T04:28:28;6.70;;;4.32;;
32321;SDS011;61553;48.994;8.940;2023-04-25T04:30:54;7.93;;;4.20;;
32321;SDS011;61553;48.994;8.940;2023-04-25T04:33:20;7.63;;;4.38;;
32321;SDS011;61553;48.994;8.940;2023-04-25T04:35:46;8.73;;;5.75;;
32321;SDS011;61553;48.994;8.940;2023-04-25T04:38:12;8.48;;;5.43;;
32321;SDS011;61553;48.994;8.940;2023-04-25T04:40:40;8.48;;;5.20;;
32321;SDS011;61553;48.994;8.940;2023-04-25T04:43:09;7.47;;;4.80;;
32321;SDS011;61553;48.994;8.940;2023-04-25T04:45:35;10.32;;;5.72;;
32321;SDS011;61553;48.994;8.940;2023-04-25T04:48:01;8.23;;;4.38;;
32321;SDS011;61553;48.994;8.940;2023-04-25T04:50:27;8.07;;;4.97;;
32321;SDS011;61553;48.994;8.940;2023-04-25T04:52:53;8.63;;;4.60;;
32321;SDS011;61553;48.994;8.940;2023-04-25T04:55:20;6.60;;;4.45;;
32321;SDS011;61553;48.994;8.940;2023-04-25T04:57:45;8.15;;;5.00;;
32321;SDS011;61553;48.994;8.940;2023-04-25T05:00:11;6.70;;;4.50;;
32321;SDS011;61553;48.994;8.940;2023-04-25T05:02:37;7.72;;;4.68;;
32321;SDS011;61553;48.994;8.940;2023-04-25T05:05:04;8.90;;;4.72;;
32321;SDS011;61553;48.994;8.940;2023-04-25T05:07:30;6.78;;;4.50;;
32321;SDS011;61553;48.994;8.940;2023-04-25T05:09:56;8.82;;;4.57;;
32321;SDS011;61553;48.994;8.940;2023-04-25T05:12:21;7.32;;;4.10;;
32321;SDS011;61553;48.994;8.940;2023-04-25T05:14:47;10.45;;;5.05;;
32321;SDS011;61553;48.994;8.940;2023-04-25T05:17:13;5.93;;;4.18;;
32321;SDS011;61553;48.994;8.940;2023-04-25T05:19:38;7.30;;;4.78;;
32321;SDS011;61553;48.994;8.940;2023-04-25T05:22:04;8.45;;;4.97;;
32321;SDS011;61553;48.994;8.940;2023-04-25T05:24:30;7.82;;;4.65;;
32321;SDS011;61553;48.994;8.940;2023-04-25T05:26:55;6.93;;;4.13;;
32321;SDS011;61553;48.994;8.940;2023-04-25T05:29:21;9.13;;;4.70;;
32321;SDS011;61553;48.994;8.940;2023-04-25T05:31:47;8.80;;;4.70;;
32321;SDS011;61553;48.994;8.940;2023-04-25T05:34:13;8.88;;;4.90;;
32321;SDS011;61553;48.994;8.940;2023-04-25T05:36:38;6.40;;;3.85;;
32321;SDS011;61553;48.994;8.940;2023-04-25T05:39:04;8.32;;;4.60;;
32321;SDS011;61553;48.994;8.940;2023-04-25T05:41:31;6.25;;;4.20;;
32321;SDS011;61553;48.994;8.940;2023-04-25T05:43:56;8.30;;;4.80;;
32321;SDS011;61553;48.994;8.940;2023-04-25T05:46:22;8.18;;;3.95;;
32321;SDS011;61553;48.994;8.940;2023-04-25T05:48:48;6.20;;;4.00;;
32321;SDS011;61553;48.994;8.940;2023-04-25T05:51:13;7.07;;;3.78;;
32321;SDS011;61553;48.994;8.940;2023-04-25T05:53:39;5.65;;;3.83;;
32321;SDS011;61553;48.994;8.940;2023-04-25T05:56:04;5.82;;;3.78;;
32321;SDS011;61553;48.994;8.940;2023-04-25T05:58:30;6.70;;;3.80;;
32321;SDS011;61553;48.994;8.940;2023-04-25T06:00:56;6.40;;;3.72;;
32321;SDS011;61553;48.994;8.940;2023-04-25T06:03:21;6.32;;;3.60;;
32321;SDS011;61553;48.994;8.940;2023-04-25T06:05:47;6.85;;;3.92;;
32321;SDS011;61553;48.994;8.940;2023-04-25T06:08:13;5.95;;;4.05;;
32321;SDS011;61553;48.994;8.940;2023-04-25T06:10:38;6.50;;;3.78;;
32321;SDS011;61553;48.994;8.940;2023-04-25T06:13:04;7.75;;;4.40;;
32321;SDS011;61553;48.994;8.940;2023-04-25T06:15:30;8.45;;;4.65;;
32321;SDS011;61553;48.994;8.940;2023-04-25T06:17:57;40.70;;;20.05;;
32321;SDS011;61553;48.994;8.940;2023-04-25T06:20:23;9.57;;;5.60;;
32321;SDS011;61553;48.994;8.940;2023-04-25T06:22:49;8.27;;;5.03;;
32321;SDS011;61553;48.994;8.940;2023-04-25T06:25:18;12.02;;;7.55;;
32321;SDS011;61553;48.994;8.940;2023-04-25T06:27:45;18.35;;;9.30;;
32321;SDS011;61553;48.994;8.940;2023-04-25T06:30:10;8.77;;;4.57;;
32321;SDS011;61553;48.994;8.940;2023-04-25T06:32:40;9.95;;;3.90;;
32321;SDS011;61553;48.994;8.940;2023-04-25T06:35:05;6.97;;;4.00;;
32321;SDS011;61553;48.994;8.940;2023-04-25T06:37:31;6.53;;;3.15;;
32321;SDS011;61553;48.994;8.940;2023-04-25T06:39:57;6.05;;;3.10;;
32321;SDS011;61553;48.994;8.940;2023-04-25T06:42:22;8.05;;;3.65;;
32321;SDS011;61553;48.994;8.940;2023-04-25T06:44:48;5.68;;;2.97;;
32321;SDS011;61553;48.994;8.940;2023-04-25T06:47:14;5.80;;;3.25;;
32321;SDS011;61553;48.994;8.940;2023-04-25T06:49:40;7.22;;;3.75;;
32321;SDS011;61553;48.994;8.940;2023-04-25T06:52:05;6.30;;;3.58;;
32321;SDS011;61553;48.994;8.940;2023-04-25T06:54:32;6.93;;;3.65;;
32321;SDS011;61553;48.994;8.940;2023-04-25T06:56:57;5.05;;;3.53;;
32321;SDS011;61553;48.994;8.940;2023-04-25T06:59:23;4.97;;;3.33;;
32321;SDS011;61553;48.994;8.940;2023-04-25T07:01:49;7.05;;;3.63;;
32321;SDS011;61553;48.994;8.940;2023-04-25T07:04:14;6.47;;;3.78;;
32321;SDS011;61553;48.994;8.940;2023-04-25T07:06:40;6.13;;;3.28;;
32321;SDS011;61553;48.994;8.940;2023-04-25T07:09:09;8.40;;;3.70;;
32321;SDS011;61553;48.994;8.940;2023-04-25T07:11:35;7.57;;;3.83;;
32321;SDS011;61553;48.994;8.940;2023-04-25T07:14:01;4.90;;;3.08;;
32321;SDS011;61553;48.994;8.940;2023-04-25T07:16:27;6.82;;;3.83;;
32321;SDS011;61553;48.994;8.940;2023-04-25T07:18:53;5.90;;;3.78;;
32321;SDS011;61553;48.994;8.940;2023-04-25T07:21:18;6.63;;;3.67;;
32321;SDS011;61553;48.994;8.940;2023-04-25T07:23:44;5.22;;;3.45;;
32321;SDS011;61553;48.994;8.940;2023-04-25T07:26:10;5.53;;;3.35;;
32321;SDS011;61553;48.994;8.940;2023-04-25T07:28:35;6.88;;;4.20;;
32321;SDS011;61553;48.994;8.940;2023-04-25T07:31:01;6.63;;;3.80;;
32321;SDS011;61553;48.994;8.940;2023-04-25T07:33:27;5.88;;;3.65;;
32321;SDS011;61553;48.994;8.940;2023-04-25T07:35:53;7.30;;;4.07;;
32321;SDS011;61553;48.994;8.940;2023-04-25T07:38:19;9.75;;;4.30;;
32321;SDS011;61553;48.994;8.940;2023-04-25T07:40:44;6.45;;;4.40;;
32321;SDS011;61553;48.994;8.940;2023-04-25T07:43:10;9.98;;;4.72;;
32321;SDS011;61553;48.994;8.940;2023-04-25T07:45:39;7.47;;;4.65;;
32321;SDS011;61553;48.994;8.940;2023-04-25T07:48:04;8.30;;;5.05;;
32321;SDS011;61553;48.994;8.940;2023-04-25T07:50:30;13.25;;;6.95;;
32321;SDS011;61553;48.994;8.940;2023-04-25T07:52:56;11.27;;;6.78;;
32321;SDS011;61553;48.994;8.940;2023-04-25T07:55:21;9.23;;;6.57;;
32321;SDS011;61553;48.994;8.940;2023-04-25T07:57:47;14.82;;;9.18;;
32321;SDS011;61553;48.994;8.940;2023-04-25T08:00:13;12.52;;;8.07;;
32321;SDS011;61553;48.994;8.940;2023-04-25T08:02:39;14.13;;;8.85;;
32321;SDS011;61553;48.994;8.940;2023-04-25T08:05:05;13.82;;;8.25;;
32321;SDS011;61553;48.994;8.940;2023-04-25T08:07:33;14.00;;;9.35;;
32321;SDS011;61553;48.994;8.940;2023-04-25T08:09:59;10.93;;;7.15;;
32321;SDS011;61553;48.994;8.940;2023-04-25T08:12:25;10.15;;;6.68;;
32321;SDS011;61553;48.994;8.940;2023-04-25T08:14:50;11.35;;;5.68;;
32321;SDS011;61553;48.994;8.940;2023-04-25T08:17:16;8.57;;;5.70;;
32321;SDS011;61553;48.994;8.940;2023-04-25T08:19:41;10.48;;;6.97;;
32321;SDS011;61553;48.994;8.940;2023-04-25T08:22:08;13.85;;;8.05;;
32321;SDS011;61553;48.994;8.940;2023-04-25T08:24:33;17.08;;;9.45;;
32321;SDS011;61553;48.994;8.940;2023-04-25T08:26:59;10.30;;;6.40;;
32321;SDS011;61553;48.994;8.940;2023-04-25T08:29:25;10.10;;;5.75;;
32321;SDS011;61553;48.994;8.940;2023-04-25T08:31:51;8.77;;;6.50;;
32321;SDS011;61553;48.994;8.940;2023-04-25T08:34:18;8.70;;;6.22;;
32321;SDS011;61553;48.994;8.940;2023-04-25T08:36:45;11.90;;;7.80;;
32321;SDS011;61553;48.994;8.940;2023-04-25T08:39:10;13.50;;;7.03;;
32321;SDS011;61553;48.994;8.940;2023-04-25T08:41:37;15.73;;;9.90;;
32321;SDS011;61553;48.994;8.940;2023-04-25T08:44:02;13.82;;;9.40;;
32321;SDS011;61553;48.994;8.940;2023-04-25T08:46:29;11.38;;;8.13;;
32321;SDS011;61553;48.994;8.940;2023-04-25T08:48:57;10.52;;;7.28;;
32321;SDS011;61553;48.994;8.940;2023-04-25T08:51:26;9.25;;;6.60;;
32321;SDS011;61553;48.994;8.940;2023-04-25T08:53:53;11.18;;;6.90;;
32321;SDS011;61553;48.994;8.940;2023-04-25T08:56:18;11.02;;;6.75;;
32321;SDS011;61553;48.994;8.940;2023-04-25T08:58:50;9.20;;;6.93;;
32321;SDS011;61553;48.994;8.940;2023-04-25T09:01:16;8.68;;;6.43;;
32321;SDS011;61553;48.994;8.940;2023-04-25T09:03:43;20.42;;;14.57;;
32321;SDS011;61553;48.994;8.940;2023-04-25T09:06:13;14.15;;;10.55;;
32321;SDS011;61553;48.994;8.940;2023-04-25T09:08:39;32.33;;;22.10;;
32321;SDS011;61553;48.994;8.940;2023-04-25T09:11:06;17.45;;;11.68;;
32321;SDS011;61553;48.994;8.940;2023-04-25T09:13:32;10.93;;;6.25;;
32321;SDS011;61553;48.994;8.940;2023-04-25T09:15:58;9.00;;;5.43;;
32321;SDS011;61553;48.994;8.940;2023-04-25T09:20:51;8.80;;;6.88;;
32321;SDS011;61553;48.994;8.940;2023-04-25T09:23:20;7.60;;;6.13;;
32321;SDS011;61553;48.994;8.940;2023-04-25T09:25:47;11.70;;;9.35;;
32321;SDS011;61553;48.994;8.940;2023-04-25T09:28:14;7.68;;;5.18;;
32321;SDS011;61553;48.994;8.940;2023-04-25T09:30:40;8.52;;;7.07;;
32321;SDS011;61553;48.994;8.940;2023-04-25T09:33:07;8.95;;;6.00;;
32321;SDS011;61553;48.994;8.940;2023-04-25T09:35:37;10.20;;;5.65;;
32321;SDS011;61553;48.994;8.940;2023-04-25T09:38:07;8.23;;;5.10;;
32321;SDS011;61553;48.994;8.940;2023-04-25T09:40:34;7.75;;;5.53;;
32321;SDS011;61553;48.994;8.940;2023-04-25T09:43:18;9.30;;;6.15;;
32321;SDS011;61553;48.994;8.940;2023-04-25T09:45:45;11.05;;;6.32;;
32321;SDS011;61553;48.994;8.940;2023-04-25T09:48:15;9.18;;;4.75;;
32321;SDS011;61553;48.994;8.940;2023-04-25T09:51:03;9.43;;;6.07;;
32321;SDS011;61553;48.994;8.940;2023-04-25T09:53:42;6.70;;;4.53;;
32321;SDS011;61553;48.994;8.940;2023-04-25T09:56:11;7.90;;;4.57;;
32321;SDS011;61553;48.994;8.940;2023-04-25T09:58:38;8.73;;;5.28;;
32321;SDS011;61553;48.994;8.940;2023-04-25T10:01:08;7.75;;;4.80;;
32321;SDS011;61553;48.994;8.940;2023-04-25T10:03:35;13.93;;;8.35;;
32321;SDS011;61553;48.994;8.940;2023-04-25T10:06:11;35.85;;;20.83;;
32321;SDS011;61553;48.994;8.940;2023-04-25T10:08:39;25.25;;;14.75;;
32321;SDS011;61553;48.994;8.940;2023-04-25T10:11:07;13.07;;;7.47;;
32321;SDS011;61553;48.994;8.940;2023-04-25T10:13:34;25.65;;;16.63;;
32321;SDS011;61553;48.994;8.940;2023-04-25T10:16:04;18.17;;;10.60;;
32321;SDS011;61553;48.994;8.940;2023-04-25T10:18:30;20.42;;;13.18;;
32321;SDS011;61553;48.994;8.940;2023-04-25T10:21:06;12.93;;;7.40;;
32321;SDS011;61553;48.994;8.940;2023-04-25T10:23:32;11.43;;;6.65;;
32321;SDS011;61553;48.994;8.940;2023-04-25T10:26:01;9.13;;;6.00;;
32321;SDS011;61553;48.994;8.940;2023-04-25T10:28:27;10.65;;;6.43;;
32321;SDS011;61553;48.994;8.940;2023-04-25T10:30:57;10.52;;;5.55;;
32321;SDS011;61553;48.994;8.940;2023-04-25T10:36:11;9.60;;;6.43;;
32321;SDS011;61553;48.994;8.940;2023-04-25T10:38:39;8.90;;;6.15;;
32321;SDS011;61553;48.994;8.940;2023-04-25T10:41:05;9.20;;;6.28;;
32321;SDS011;61553;48.994;8.940;2023-04-25T10:43:37;11.52;;;6.13;;
32321;SDS011;61553;48.994;8.940;2023-04-25T10:46:17;8.63;;;5.88;;
32321;SDS011;61553;48.994;8.940;2023-04-25T10:53:45;9.07;;;6.55;;
32321;SDS011;61553;48.994;8.940;2023-04-25T10:56:16;10.75;;;6.22;;
32321;SDS011;61553;48.994;8.940;2023-04-25T10:58:44;10.15;;;6.20;;
32321;SDS011;61553;48.994;8.940;2023-04-25T11:01:10;11.40;;;6.07;;
32321;SDS011;61553;48.994;8.940;2023-04-25T11:03:39;8.60;;;5.40;;
32321;SDS011;61553;48.994;8.940;2023-04-25T11:06:08;15.77;;;10.50;;
32321;SDS011;61553;48.994;8.940;2023-04-25T11:08:49;9.63;;;5.30;;
32321;SDS011;61553;48.994;8.940;2023-04-25T11:11:19;7.93;;;4.97;;
32321;SDS011;61553;48.994;8.940;2023-04-25T11:13:48;10.95;;;5.35;;
32321;SDS011;61553;48.994;8.940;2023-04-25T11:16:14;12.73;;;6.20;;
32321;SDS011;61553;48.994;8.940;2023-04-25T11:18:41;13.02;;;5.80;;
32321;SDS011;61553;48.994;8.940;2023-04-25T11:21:08;11.93;;;5.78;;
32321;SDS011;61553;48.994;8.940;2023-04-25T11:23:34;8.65;;;5.80;;
32321;SDS011;61553;48.994;8.940;2023-04-25T11:25:59;10.98;;;5.93;;
32321;SDS011;61553;48.994;8.940;2023-04-25T11:28:26;13.82;;;6.50;;
32321;SDS011;61553;48.994;8.940;2023-04-25T11:30:52;12.85;;;6.65;;
32321;SDS011;61553;48.994;8.940;2023-04-25T11:33:18;12.05;;;6.15;;
32321;SDS011;61553;48.994;8.940;2023-04-25T11:35:48;11.43;;;6.63;;
32321;SDS011;61553;48.994;8.940;2023-04-25T11:38:14;12.68;;;6.78;;
32321;SDS011;61553;48.994;8.940;2023-04-25T11:40:40;14.45;;;7.22;;
32321;SDS011;61553;48.994;8.940;2023-04-25T11:43:06;11.30;;;6.50;;
32321;SDS011;61553;48.994;8.940;2023-04-25T11:45:32;12.10;;;6.25;;
32321;SDS011;61553;48.994;8.940;2023-04-25T11:47:57;10.88;;;6.97;;
32321;SDS011;61553;48.994;8.940;2023-04-25T11:50:23;12.48;;;7.47;;
32321;SDS011;61553;48.994;8.940;2023-04-25T11:52:49;15.07;;;7.97;;
32321;SDS011;61553;48.994;8.940;2023-04-25T11:55:19;16.95;;;7.57;;
32321;SDS011;61553;48.994;8.940;2023-04-25T11:57:47;13.95;;;8.23;;
32321;SDS011;61553;48.994;8.940;2023-04-25T12:00:19;12.40;;;7.15;;
32321;SDS011;61553;48.994;8.940;2023-04-25T12:02:47;14.90;;;7.80;;
32321;SDS011;61553;48.994;8.940;2023-04-25T12:05:17;14.45;;;7.72;;
32321;SDS011;61553;48.994;8.940;2023-04-25T12:07:42;13.95;;;7.20;;
32321;SDS011;61553;48.994;8.940;2023-04-25T12:10:12;14.45;;;8.23;;
32321;SDS011;61553;48.994;8.940;2023-04-25T12:12:43;15.10;;;9.10;;
32321;SDS011;61553;48.994;8.940;2023-04-25T12:17:47;14.55;;;9.68;;
32321;SDS011;61553;48.994;8.940;2023-04-25T12:20:15;13.88;;;8.40;;
32321;SDS011;61553;48.994;8.940;2023-04-25T12:22:42;15.88;;;9.00;;
32321;SDS011;61553;48.994;8.940;2023-04-25T12:25:55;16.55;;;8.68;;
32321;SDS011;61553;48.994;8.940;2023-04-25T12:28:36;13.88;;;9.52;;
32321;SDS011;61553;48.994;8.940;2023-04-25T12:31:01;13.60;;;8.50;;
32321;SDS011;61553;48.994;8.940;2023-04-25T12:33:37;16.55;;;8.75;;
32321;SDS011;61553;48.994;8.940;2023-04-25T12:36:05;14.55;;;8.32;;
32321;SDS011;61553;48.994;8.940;2023-04-25T12:38:36;15.77;;;9.18;;
32321;SDS011;61553;48.994;8.940;2023-04-25T12:41:06;17.23;;;10.00;;
32321;SDS011;61553;48.994;8.940;2023-04-25T12:43:32;12.50;;;8.40;;
32321;SDS011;61553;48.994;8.940;2023-04-25T12:45:58;16.30;;;8.07;;
32321;SDS011;61553;48.994;8.940;2023-04-25T12:48:24;12.85;;;8.60;;
32321;SDS011;61553;48.994;8.940;2023-04-25T12:50:50;14.60;;;9.75;;
32321;SDS011;61553;48.994;8.940;2023-04-25T12:53:21;15.40;;;8.40;;
32321;SDS011;61553;48.994;8.940;2023-04-25T12:55:47;16.15;;;9.15;;
32321;SDS011;61553;48.994;8.940;2023-04-25T12:58:14;14.02;;;8.75;;
32321;SDS011;61553;48.994;8.940;2023-04-25T13:00:40;14.48;;;9.00;;
32321;SDS011;61553;48.994;8.940;2023-04-25T13:03:06;14.70;;;8.13;;
32321;SDS011;61553;48.994;8.940;2023-04-25T13:05:33;11.50;;;7.80;;
32321;SDS011;61553;48.994;8.940;2023-04-25T13:07:58;11.88;;;7.63;;
32321;SDS011;61553;48.994;8.940;2023-04-25T13:10:24;11.35;;;7.38;;
32321;SDS011;61553;48.994;8.940;2023-04-25T13:12:50;9.52;;;6.80;;
32321;SDS011;61553;48.994;8.940;2023-04-25T13:15:15;12.05;;;6.38;;
32321;SDS011;61553;48.994;8.940;2023-04-25T13:17:41;13.40;;;6.53;;
32321;SDS011;61553;48.994;8.940;2023-04-25T13:20:07;10.98;;;6.80;;
32321;SDS011;61553;48.994;8.940;2023-04-25T13:22:37;12.68;;;6.47;;
32321;SDS011;61553;48.994;8.940;2023-04-25T13:25:04;12.30;;;6.65;;
32321;SDS011;61553;48.994;8.940;2023-04-25T13:27:31;14.07;;;8.13;;
32321;SDS011;61553;48.994;8.940;2023-04-25T13:29:59;10.75;;;6.38;;
32321;SDS011;61553;48.994;8.940;2023-04-25T13:32:26;10.88;;;6.10;;
32321;SDS011;61553;48.994;8.940;2023-04-25T13:34:53;11.10;;;6.25;;
32321;SDS011;61553;48.994;8.940;2023-04-25T13:37:18;9.15;;;5.45;;
32321;SDS011;61553;48.994;8.940;2023-04-25T13:39:44;10.13;;;5.95;;
32321;SDS011;61553;48.994;8.940;2023-04-25T13:42:10;12.00;;;5.78;;
32321;SDS011;61553;48.994;8.940;2023-04-25T13:44:36;10.98;;;6.22;;
32321;SDS011;61553;48.994;8.940;2023-04-25T13:47:02;10.15;;;5.68;;
32321;SDS011;61553;48.994;8.940;2023-04-25T13:49:27;11.55;;;5.90;;
32321;SDS011;61553;48.994;8.940;2023-04-25T13:51:53;8.80;;;6.13;;
32321;SDS011;61553;48.994;8.940;2023-04-25T13:54:19;14.45;;;7.05;;
32321;SDS011;61553;48.994;8.940;2023-04-25T13:56:44;11.27;;;6.65;;
32321;SDS011;61553;48.994;8.940;2023-04-25T13:59:10;13.00;;;6.43;;
32321;SDS011;61553;48.994;8.940;2023-04-25T14:01:36;14.40;;;7.45;;
32321;SDS011;61553;48.994;8.940;2023-04-25T14:04:02;12.32;;;7.60;;
32321;SDS011;61553;48.994;8.940;2023-04-25T14:06:31;11.32;;;7.60;;
32321;SDS011;61553;48.994;8.940;2023-04-25T14:08:56;15.70;;;7.75;;
32321;SDS011;61553;48.994;8.940;2023-04-25T14:11:22;13.05;;;7.50;;
32321;SDS011;61553;48.994;8.940;2023-04-25T14:13:48;13.10;;;7.70;;
32321;SDS011;61553;48.994;8.940;2023-04-25T14:16:14;11.38;;;7.30;;
32321;SDS011;61553;48.994;8.940;2023-04-25T14:18:40;12.65;;;7.03;;
32321;SDS011;61553;48.994;8.940;2023-04-25T14:21:06;11.50;;;6.72;;
32321;SDS011;61553;48.994;8.940;2023-04-25T14:23:32;14.15;;;7.10;;
32321;SDS011;61553;48.994;8.940;2023-04-25T14:25:57;11.10;;;6.72;;
32321;SDS011;61553;48.994;8.940;2023-04-25T14:28:23;11.70;;;5.90;;
32321;SDS011;61553;48.994;8.940;2023-04-25T14:30:48;12.20;;;6.25;;
32321;SDS011;61553;48.994;8.940;2023-04-25T14:33:14;10.27;;;6.18;;
32321;SDS011;61553;48.994;8.940;2023-04-25T14:35:40;12.15;;;6.60;;
32321;SDS011;61553;48.994;8.940;2023-04-25T14:38:06;10.23;;;6.25;;
32321;SDS011;61553;48.994;8.940;2023-04-25T14:40:32;15.90;;;6.68;;
32321;SDS011;61553;48.994;8.940;2023-04-25T14:42:58;16.95;;;7.00;;
32321;SDS011;61553;48.994;8.940;2023-04-25T14:45:24;12.57;;;6.90;;
32321;SDS011;61553;48.994;8.940;2023-04-25T14:47:49;14.23;;;6.55;;
32321;SDS011;61553;48.994;8.940;2023-04-25T14:50:15;11.82;;;6.40;;